Terminal Aerodrome Forecast
Issued by NWS Buffalo, NY

Home | Current Version | Previous Version | Text Only | Print | Product List | Glossary On
Versions: 1 2 3 4 5 6 7 8 9 10 11 12 13 14 15 16 17 18 19 20 21 22 23 24 25 26 27 28
824
FTUS41 KBUF 270533
TAFROC
TAF
KROC 270533Z 2706/2806 22005KT P6SM VCSH OVC060
     FM270800 25005KT 6SM -SHRA OVC060
     FM271300 23006KT 6SM -SHRA OVC020
     FM271700 28006KT P6SM VCSH BKN020
     FM272000 32007KT P6SM BKN200
     FM280300 VRB03KT 5SM BR SCT250=

USA.gov is the U.S. government's official web portal to all federal, state and local government web resources and services.